sensor_id;sensor_type;location;lat;lon;timestamp;pressure;altitude;pressure_sealevel;temperature;humidity
5679;BME280;2862;52.560;13.566;2023-07-29T00:07:45;99961.41;;;19.23;100.00
5679;BME280;2862;52.560;13.566;2023-07-29T00:17:48;99963.84;;;19.04;100.00
5679;BME280;2862;52.560;13.566;2023-07-29T00:27:54;99958.31;;;18.91;100.00
5679;BME280;2862;52.560;13.566;2023-07-29T00:37:57;99954.53;;;18.79;100.00
5679;BME280;2862;52.560;13.566;2023-07-29T00:48:03;99951.16;;;18.70;100.00
5679;BME280;2862;52.560;13.566;2023-07-29T00:58:07;99957.25;;;18.57;100.00
5679;BME280;2862;52.560;13.566;2023-07-29T01:08:18;99948.44;;;18.42;100.00
5679;BME280;2862;52.560;13.566;2023-07-29T01:18:26;99942.19;;;18.42;100.00
5679;BME280;2862;52.560;13.566;2023-07-29T01:28:32;99927.03;;;18.47;100.00
5679;BME280;2862;52.560;13.566;2023-07-29T01:38:36;99917.44;;;18.51;100.00
5679;BME280;2862;52.560;13.566;2023-07-29T01:48:42;99921.41;;;18.49;100.00
5679;BME280;2862;52.560;13.566;2023-07-29T01:58:47;99944.44;;;18.38;100.00
5679;BME280;2862;52.560;13.566;2023-07-29T02:08:53;99938.78;;;18.33;100.00
5679;BME280;2862;52.560;13.566;2023-07-29T02:18:56;99933.00;;;18.36;100.00
5679;BME280;2862;52.560;13.566;2023-07-29T02:29:01;99939.13;;;18.23;100.00
5679;BME280;2862;52.560;13.566;2023-07-29T02:39:04;99930.03;;;18.03;100.00
5679;BME280;2862;52.560;13.566;2023-07-29T02:49:09;99941.16;;;18.15;100.00
5679;BME280;2862;52.560;13.566;2023-07-29T02:59:12;99944.38;;;18.03;100.00
5679;BME280;2862;52.560;13.566;2023-07-29T03:09:16;99938.94;;;17.97;100.00
5679;BME280;2862;52.560;13.566;2023-07-29T03:19:19;99925.72;;;17.87;100.00
5679;BME280;2862;52.560;13.566;2023-07-29T03:29:24;99935.13;;;17.91;100.00
5679;BME280;2862;52.560;13.566;2023-07-29T03:39:28;99930.22;;;18.01;100.00
5679;BME280;2862;52.560;13.566;2023-07-29T03:49:32;99923.88;;;18.16;100.00
5679;BME280;2862;52.560;13.566;2023-07-29T03:59:36;99912.13;;;20.07;100.00
5679;BME280;2862;52.560;13.566;2023-07-29T04:09:41;99911.44;;;22.42;89.24
5679;BME280;2862;52.560;13.566;2023-07-29T04:19:45;99916.44;;;20.67;100.00
5679;BME280;2862;52.560;13.566;2023-07-29T04:29:49;99901.53;;;22.66;87.74
5679;BME280;2862;52.560;13.566;2023-07-29T04:39:52;99887.56;;;27.02;66.84
5679;BME280;2862;52.560;13.566;2023-07-29T04:49:56;99894.06;;;31.33;49.84
5679;BME280;2862;52.560;13.566;2023-07-29T04:59:59;99904.78;;;33.38;42.57
5679;BME280;2862;52.560;13.566;2023-07-29T05:10:05;99896.75;;;32.99;43.00
5679;BME280;2862;52.560;13.566;2023-07-29T05:20:09;99886.47;;;35.36;37.75
5679;BME280;2862;52.560;13.566;2023-07-29T05:30:13;99892.63;;;34.56;37.58
5679;BME280;2862;52.560;13.566;2023-07-29T05:40:17;99882.75;;;35.77;36.43
5679;BME280;2862;52.560;13.566;2023-07-29T05:50:21;99889.16;;;31.59;43.62
5679;BME280;2862;52.560;13.566;2023-07-29T06:00:24;99892.03;;;33.37;41.97
5679;BME280;2862;52.560;13.566;2023-07-29T06:10:28;99891.19;;;33.42;41.49
5679;BME280;2862;52.560;13.566;2023-07-29T06:20:32;99862.16;;;36.01;35.90
5679;BME280;2862;52.560;13.566;2023-07-29T06:30:37;99861.44;;;36.49;34.37
5679;BME280;2862;52.560;13.566;2023-07-29T06:40:40;99858.72;;;32.81;42.88
5679;BME280;2862;52.560;13.566;2023-07-29T06:50:44;99864.19;;;32.38;43.17
5679;BME280;2862;52.560;13.566;2023-07-29T07:00:47;99866.78;;;30.41;49.44
5679;BME280;2862;52.560;13.566;2023-07-29T07:10:51;99868.06;;;33.09;42.22
5679;BME280;2862;52.560;13.566;2023-07-29T07:20:53;99876.16;;;28.76;54.83
5679;BME280;2862;52.560;13.566;2023-07-29T07:30:57;99872.75;;;28.11;56.98
5679;BME280;2862;52.560;13.566;2023-07-29T07:41:00;99879.31;;;25.40;69.71
5679;BME280;2862;52.560;13.566;2023-07-29T07:51:11;99866.13;;;24.22;77.28
5679;BME280;2862;52.560;13.566;2023-07-29T08:01:15;99866.47;;;24.72;75.49
5679;BME280;2862;52.560;13.566;2023-07-29T08:11:19;99847.19;;;24.79;75.63
5679;BME280;2862;52.560;13.566;2023-07-29T08:21:21;99849.69;;;26.00;69.60
5679;BME280;2862;52.560;13.566;2023-07-29T08:31:25;99846.44;;;25.86;70.04
5679;BME280;2862;52.560;13.566;2023-07-29T08:41:31;99834.44;;;26.26;68.71
5679;BME280;2862;52.560;13.566;2023-07-29T08:51:37;99839.53;;;25.21;73.32
5679;BME280;2862;52.560;13.566;2023-07-29T09:01:41;99828.50;;;25.95;69.32
5679;BME280;2862;52.560;13.566;2023-07-29T09:11:46;99836.53;;;25.68;70.85
5679;BME280;2862;52.560;13.566;2023-07-29T09:21:49;99822.59;;;25.69;70.98
5679;BME280;2862;52.560;13.566;2023-07-29T09:31:53;99797.72;;;26.92;65.37
5679;BME280;2862;52.560;13.566;2023-07-29T09:41:55;99793.72;;;27.27;63.31
5679;BME280;2862;52.560;13.566;2023-07-29T09:52:00;99787.00;;;27.13;63.50
5679;BME280;2862;52.560;13.566;2023-07-29T10:02:04;99775.25;;;26.68;64.45
5679;BME280;2862;52.560;13.566;2023-07-29T10:12:09;99764.13;;;26.36;68.24
5679;BME280;2862;52.560;13.566;2023-07-29T10:22:13;99761.13;;;26.82;66.47
5679;BME280;2862;52.560;13.566;2023-07-29T10:32:27;99752.69;;;26.88;64.10
5679;BME280;2862;52.560;13.566;2023-07-29T10:42:32;99727.53;;;26.26;66.59
5679;BME280;2862;52.560;13.566;2023-07-29T10:52:41;99716.56;;;26.26;66.07
5679;BME280;2862;52.560;13.566;2023-07-29T11:02:56;99703.75;;;26.75;64.19
5679;BME280;2862;52.560;13.566;2023-07-29T11:13:03;99699.75;;;25.95;67.51
5679;BME280;2862;52.560;13.566;2023-07-29T11:23:08;99708.75;;;25.57;67.12
5679;BME280;2862;52.560;13.566;2023-07-29T11:33:12;99760.81;;;24.54;72.32
5679;BME280;2862;52.560;13.566;2023-07-29T11:43:17;99784.94;;;22.13;92.77
5679;BME280;2862;52.560;13.566;2023-07-29T11:53:22;99765.59;;;21.78;98.13
5679;BME280;2862;52.560;13.566;2023-07-29T12:03:25;99761.16;;;22.02;99.82
5679;BME280;2862;52.560;13.566;2023-07-29T12:13:30;99725.19;;;22.18;100.00
5679;BME280;2862;52.560;13.566;2023-07-29T12:23:36;99724.19;;;22.49;99.61
5679;BME280;2862;52.560;13.566;2023-07-29T12:33:40;99730.47;;;22.80;96.77
5679;BME280;2862;52.560;13.566;2023-07-29T12:43:47;99735.31;;;22.96;99.01
5679;BME280;2862;52.560;13.566;2023-07-29T12:53:51;99725.84;;;22.80;99.05
5679;BME280;2862;52.560;13.566;2023-07-29T13:03:54;99718.19;;;23.90;92.38
5679;BME280;2862;52.560;13.566;2023-07-29T13:13:59;99700.75;;;25.33;84.64
5679;BME280;2862;52.560;13.566;2023-07-29T13:24:03;99721.06;;;25.54;84.91
5679;BME280;2862;52.560;13.566;2023-07-29T13:34:08;99734.41;;;24.72;89.71
5679;BME280;2862;52.560;13.566;2023-07-29T13:44:11;99733.00;;;24.57;87.38
5679;BME280;2862;52.560;13.566;2023-07-29T13:54:15;99704.25;;;25.12;83.81
5679;BME280;2862;52.560;13.566;2023-07-29T14:04:17;99689.63;;;25.23;81.48
5679;BME280;2862;52.560;13.566;2023-07-29T14:14:22;99680.84;;;25.93;77.41
5679;BME280;2862;52.560;13.566;2023-07-29T14:24:29;99683.75;;;26.31;72.63
5679;BME280;2862;52.560;13.566;2023-07-29T14:34:34;99676.63;;;26.08;72.24
5679;BME280;2862;52.560;13.566;2023-07-29T14:44:39;99672.34;;;25.56;71.64
5679;BME280;2862;52.560;13.566;2023-07-29T14:54:43;99702.00;;;25.42;73.39
5679;BME280;2862;52.560;13.566;2023-07-29T15:04:46;99704.97;;;25.24;73.47
5679;BME280;2862;52.560;13.566;2023-07-29T15:14:50;99687.38;;;25.03;75.85
5679;BME280;2862;52.560;13.566;2023-07-29T15:24:53;99718.41;;;24.52;76.91
5679;BME280;2862;52.560;13.566;2023-07-29T15:34:57;99701.56;;;24.31;78.33
5679;BME280;2862;52.560;13.566;2023-07-29T15:45:00;99717.75;;;24.33;79.94
5679;BME280;2862;52.560;13.566;2023-07-29T15:55:05;99747.81;;;23.51;88.27
5679;BME280;2862;52.560;13.566;2023-07-29T16:05:08;99703.94;;;21.90;97.68
5679;BME280;2862;52.560;13.566;2023-07-29T16:15:12;99768.25;;;21.85;99.13
5679;BME280;2862;52.560;13.566;2023-07-29T16:25:15;99755.88;;;22.07;94.34
5679;BME280;2862;52.560;13.566;2023-07-29T16:35:20;99751.50;;;22.61;93.37
5679;BME280;2862;52.560;13.566;2023-07-29T16:45:24;99773.31;;;22.91;90.89
5679;BME280;2862;52.560;13.566;2023-07-29T16:55:28;99772.56;;;22.36;96.61
5679;BME280;2862;52.560;13.566;2023-07-29T17:05:32;99773.75;;;22.03;97.72
5679;BME280;2862;52.560;13.566;2023-07-29T17:16:07;99775.69;;;21.96;97.87
5679;BME280;2862;52.560;13.566;2023-07-29T17:26:11;99785.38;;;21.92;98.58
5679;BME280;2862;52.560;13.566;2023-07-29T17:36:15;99770.13;;;21.91;98.24
5679;BME280;2862;52.560;13.566;2023-07-29T17:46:19;99786.13;;;21.99;95.20
5679;BME280;2862;52.560;13.566;2023-07-29T17:56:23;99770.13;;;22.09;97.68
5679;BME280;2862;52.560;13.566;2023-07-29T18:06:27;99771.47;;;22.00;97.13
5679;BME280;2862;52.560;13.566;2023-07-29T18:16:31;99775.34;;;21.67;100.00
5679;BME280;2862;52.560;13.566;2023-07-29T18:26:35;99773.75;;;21.35;100.00
5679;BME280;2862;52.560;13.566;2023-07-29T18:36:39;99783.34;;;21.06;100.00
5679;BME280;2862;52.560;13.566;2023-07-29T18:46:45;99810.56;;;20.92;100.00
5679;BME280;2862;52.560;13.566;2023-07-29T18:57:01;99837.63;;;20.74;100.00
5679;BME280;2862;52.560;13.566;2023-07-29T19:07:05;99841.50;;;20.53;100.00
5679;BME280;2862;52.560;13.566;2023-07-29T19:17:15;99861.56;;;20.46;100.00
5679;BME280;2862;52.560;13.566;2023-07-29T19:27:17;99866.75;;;20.40;100.00
5679;BME280;2862;52.560;13.566;2023-07-29T19:37:22;99869.47;;;20.40;100.00
5679;BME280;2862;52.560;13.566;2023-07-29T19:47:26;99869.69;;;20.39;100.00
5679;BME280;2862;52.560;13.566;2023-07-29T19:57:30;99878.50;;;20.21;100.00
5679;BME280;2862;52.560;13.566;2023-07-29T20:07:33;99886.22;;;20.11;100.00
5679;BME280;2862;52.560;13.566;2023-07-29T20:17:38;99890.41;;;20.00;100.00
5679;BME280;2862;52.560;13.566;2023-07-29T20:27:44;99893.78;;;19.96;100.00
5679;BME280;2862;52.560;13.566;2023-07-29T20:37:50;99896.91;;;19.86;100.00
5679;BME280;2862;52.560;13.566;2023-07-29T20:47:53;99903.16;;;19.80;100.00
5679;BME280;2862;52.560;13.566;2023-07-29T20:57:57;99900.22;;;19.61;100.00
5679;BME280;2862;52.560;13.566;2023-07-29T21:08:00;99898.72;;;19.52;100.00
5679;BME280;2862;52.560;13.566;2023-07-29T21:18:04;99889.97;;;19.57;100.00
5679;BME280;2862;52.560;13.566;2023-07-29T21:28:07;99903.91;;;19.41;100.00
5679;BME280;2862;52.560;13.566;2023-07-29T21:38:11;99907.44;;;19.34;100.00
5679;BME280;2862;52.560;13.566;2023-07-29T21:48:28;99901.41;;;19.39;100.00
5679;BME280;2862;52.560;13.566;2023-07-29T21:58:32;99912.66;;;19.36;100.00
5679;BME280;2862;52.560;13.566;2023-07-29T22:08:35;99925.97;;;19.37;100.00
5679;BME280;2862;52.560;13.566;2023-07-29T22:18:39;99913.69;;;19.35;100.00
5679;BME280;2862;52.560;13.566;2023-07-29T22:28:42;99917.84;;;19.37;100.00
5679;BME280;2862;52.560;13.566;2023-07-29T22:38:48;99921.63;;;19.43;100.00
5679;BME280;2862;52.560;13.566;2023-07-29T22:48:51;99917.91;;;19.44;100.00
5679;BME280;2862;52.560;13.566;2023-07-29T22:58:55;99919.56;;;19.45;100.00
5679;BME280;2862;52.560;13.566;2023-07-29T23:09:01;99925.81;;;19.52;100.00
5679;BME280;2862;52.560;13.566;2023-07-29T23:19:05;99944.78;;;19.46;100.00
5679;BME280;2862;52.560;13.566;2023-07-29T23:29:08;99952.09;;;19.39;100.00
5679;BME280;2862;52.560;13.566;2023-07-29T23:39:13;99952.84;;;19.26;100.00
5679;BME280;2862;52.560;13.566;2023-07-29T23:49:16;99952.19;;;19.10;100.00
5679;BME280;2862;52.560;13.566;2023-07-29T23:59:20;99950.78;;;18.87;100.00
